< < Back
Terminal Aerodrome Forecast


Current Version              Previous Versions:   1  2  3  4  5  6  7  8  9  

Terminal Aerodrome Forecast

510
FTUS44 KMRX 241740
TAFTYS
TAF
KTYS 241740Z 2418/2518 25012KT P6SM SCT035
     FM250000 23004KT P6SM SCT250
     FM251400 22009KT P6SM BKN150=

Latest METAR

187
SAUS80 KWBC 251356
MTRTYS
METAR KTYS 251353Z 29006KT 10SM FEW200 03/M01 A2987 RMK AO2 SLP118
T00281011


USA.gov is the U.S. government's official web portal to all federal, state and local government web resources and services.